Time;durP1;ratioP1;P1;durP2;ratioP2;P2;SDS_P1;SDS_P2;PMS_P1;PMS_P2;Temp;Humidity;BMP_temperature;BMP_pressure;BME280_temperature;BME280_humidity;BME280_pressure;Samples;Min_cycle;Max_cycle;Signal;HPM_P1;HPM_P2
2022/08/03 00:01:52;;;;;;;1.60;0.98;;;23.10;99.90;;;;;;5076367;28;20560;-68
2022/08/03 00:04:18;;;;;;;3.88;0.77;;;23.10;99.90;;;;;;5056792;28;20199;-68
2022/08/03 00:06:43;;;;;;;1.33;1.23;;;23.00;99.90;;;;;;5077695;28;20204;-68
2022/08/03 00:09:10;;;;;;;2.28;1.40;;;23.00;99.90;;;;;;5062231;28;20192;-68
2022/08/03 00:11:35;;;;;;;1.15;0.90;;;23.00;99.90;;;;;;5068682;28;20213;-68
2022/08/03 00:14:05;;;;;;;2.45;1.08;;;23.00;99.90;;;;;;5094266;28;20188;-68
2022/08/03 00:16:31;;;;;;;5.05;1.17;;;23.00;99.90;;;;;;5070303;28;20209;-68
2022/08/03 00:18:57;;;;;;;4.35;1.20;;;23.00;99.90;;;;;;5076083;28;20633;-68
2022/08/03 00:21:22;;;;;;;1.48;1.33;;;23.00;99.90;;;;;;5093042;28;20559;-68
2022/08/03 00:23:48;;;;;;;2.67;1.10;;;23.00;99.90;;;;;;5068095;28;20182;-68
2022/08/03 00:26:14;;;;;;;5.30;2.53;;;23.00;99.90;;;;;;5062172;28;20199;-72
2022/08/03 00:28:40;;;;;;;3.33;1.17;;;23.00;99.90;;;;;;5093776;28;20181;-68
2022/08/03 00:31:06;;;;;;;2.95;1.13;;;23.00;99.90;;;;;;5093562;28;20185;-68
2022/08/03 00:33:32;;;;;;;2.28;0.98;;;22.90;99.90;;;;;;5068432;28;20193;-68
2022/08/03 00:35:58;;;;;;;2.00;1.30;;;22.90;99.90;;;;;;5075403;28;20299;-68
2022/08/03 00:38:24;;;;;;;3.95;1.20;;;22.90;99.90;;;;;;5075698;28;20189;-68
2022/08/03 00:40:49;;;;;;;2.70;2.47;;;22.80;99.90;;;;;;5070224;28;20603;-68
2022/08/03 00:43:15;;;;;;;0.90;0.90;;;22.80;99.90;;;;;;5057161;28;20220;-68
2022/08/03 00:45:42;;;;;;;3.83;1.20;;;22.70;99.90;;;;;;5085422;28;20188;-68
2022/08/03 00:48:09;;;;;;;3.90;1.38;;;22.70;99.90;;;;;;5088817;28;20185;-68
2022/08/03 00:50:39;;;;;;;5.45;1.33;;;22.80;99.90;;;;;;5091807;28;20200;-68
2022/08/03 00:53:06;;;;;;;3.65;1.80;;;22.70;99.90;;;;;;5093418;28;20207;-68
2022/08/03 00:55:34;;;;;;;1.50;1.40;;;22.60;99.90;;;;;;5063375;28;20209;-68
2022/08/03 00:58:03;;;;;;;2.40;0.90;;;22.60;99.90;;;;;;5080532;28;20633;-68
2022/08/03 01:00:29;;;;;;;1.63;1.40;;;22.50;99.90;;;;;;5054760;28;20195;-68
2022/08/03 01:02:55;;;;;;;3.13;0.90;;;22.50;99.90;;;;;;5064664;28;20189;-68
2022/08/03 01:05:21;;;;;;;0.88;0.88;;;22.40;99.90;;;;;;5090648;28;20185;-69
2022/08/03 01:07:59;;;;;;;4.25;1.33;;;22.50;99.90;;;;;;5074040;28;20197;-68
2022/08/03 01:10:48;;;;;;;4.80;1.52;;;22.50;99.90;;;;;;5073681;28;20681;-68
2022/08/03 01:13:28;;;;;;;5.80;1.27;;;22.40;99.90;;;;;;5093401;28;20180;-68
2022/08/03 01:16:11;;;;;;;4.78;1.38;;;22.30;99.90;;;;;;5073898;28;20200;-68
2022/08/03 01:18:54;;;;;;;8.57;1.45;;;22.30;99.90;;;;;;5074938;28;20288;-69
2022/08/03 01:21:48;;;;;;;3.20;1.23;;;22.30;99.90;;;;;;5088162;28;20714;-68
2022/08/03 01:24:31;;;;;;;4.85;1.45;;;22.20;99.90;;;;;;5076926;28;20216;-68
2022/08/03 01:27:07;;;;;;;3.85;1.15;;;22.20;99.90;;;;;;5086802;28;20646;-68
2022/08/03 01:29:56;;;;;;;1.33;0.82;;;22.20;99.90;;;;;;5087586;28;20184;-68
2022/08/03 01:32:31;;;;;;;1.88;1.08;;;22.20;99.90;;;;;;5066776;28;20176;-68
2022/08/03 01:35:12;;;;;;;2.22;1.15;;;22.20;99.90;;;;;;5086934;28;20181;-68
2022/08/03 01:38:01;;;;;;;4.40;1.50;;;22.10;99.90;;;;;;5091249;28;20195;-72
2022/08/03 01:40:28;;;;;;;3.65;1.20;;;22.10;99.90;;;;;;5086196;28;20557;-68
2022/08/03 01:42:56;;;;;;;0.75;0.75;;;22.10;99.90;;;;;;5083099;28;20187;-68
2022/08/03 01:45:23;;;;;;;3.63;1.08;;;22.00;99.90;;;;;;5090019;28;20195;-69
2022/08/03 01:47:50;;;;;;;4.10;1.27;;;22.00;99.90;;;;;;5052261;28;20637;-68
2022/08/03 01:50:21;;;;;;;2.58;1.85;;;21.90;99.90;;;;;;5062009;28;20176;-68
2022/08/03 01:52:48;;;;;;;2.15;1.05;;;22.00;99.90;;;;;;5082123;28;20192;-68
2022/08/03 01:55:18;;;;;;;2.45;1.27;;;21.90;99.90;;;;;;5039937;28;20223;-68
2022/08/03 01:57:45;;;;;;;3.67;1.30;;;21.90;99.90;;;;;;5086702;28;20185;-68
2022/08/03 02:00:11;;;;;;;2.47;1.55;;;21.90;99.90;;;;;;5060652;28;20559;-68
2022/08/03 02:02:38;;;;;;;3.17;2.10;;;21.90;99.90;;;;;;5074110;28;20189;-68
2022/08/03 02:05:07;;;;;;;1.30;1.13;;;21.90;99.90;;;;;;5057163;28;20237;-68
2022/08/03 02:07:34;;;;;;;2.30;1.23;;;21.90;99.90;;;;;;5085953;28;20196;-68
2022/08/03 02:10:02;;;;;;;2.15;1.50;;;21.90;99.90;;;;;;5074696;28;20592;-68
2022/08/03 02:12:30;;;;;;;6.18;1.95;;;21.90;99.90;;;;;;5070936;28;20201;-68
2022/08/03 02:14:57;;;;;;;4.00;2.03;;;21.80;99.90;;;;;;5069905;28;20545;-68
2022/08/03 02:17:25;;;;;;;4.15;1.60;;;21.80;99.90;;;;;;5073704;28;20189;-69
2022/08/03 02:19:52;;;;;;;3.72;1.60;;;21.70;99.90;;;;;;5075769;28;20192;-70
2022/08/03 02:22:18;;;;;;;2.75;1.00;;;21.70;99.90;;;;;;5076839;28;20176;-68
2022/08/03 02:24:44;;;;;;;3.30;0.85;;;21.70;99.90;;;;;;5055773;28;20514;-68
2022/08/03 02:27:22;;;;;;;3.00;1.45;;;21.60;99.90;;;;;;5070662;28;20268;-69
2022/08/03 02:29:52;;;;;;;3.00;0.93;;;21.60;99.90;;;;;;5089914;28;20657;-68
2022/08/03 02:32:24;;;;;;;2.15;1.40;;;21.50;99.90;;;;;;5086357;28;20189;-68
2022/08/03 02:34:53;;;;;;;1.00;0.82;;;21.50;99.90;;;;;;5084361;28;20180;-68
2022/08/03 02:37:24;;;;;;;2.53;1.15;;;21.50;99.90;;;;;;5095235;28;20301;-69
2022/08/03 02:39:53;;;;;;;6.80;1.40;;;21.40;99.90;;;;;;5089946;28;20180;-68
2022/08/03 02:42:22;;;;;;;3.70;0.75;;;21.40;99.90;;;;;;5051503;28;20188;-69
2022/08/03 02:44:52;;;;;;;1.52;1.40;;;21.30;99.90;;;;;;5068376;28;20243;-68
2022/08/03 02:47:20;;;;;;;1.30;1.17;;;21.30;99.90;;;;;;5077649;28;20272;-68
2022/08/03 02:49:48;;;;;;;2.92;1.42;;;21.30;99.90;;;;;;5075943;28;20268;-68
2022/08/03 02:52:15;;;;;;;1.40;1.13;;;21.30;99.90;;;;;;5076744;28;20185;-68
2022/08/03 02:54:42;;;;;;;3.10;2.90;;;21.20;99.90;;;;;;5061155;28;20230;-68
2022/08/03 02:57:09;;;;;;;3.85;1.15;;;21.20;99.90;;;;;;5083504;28;20222;-68
2022/08/03 02:59:36;;;;;;;2.40;1.45;;;21.20;99.90;;;;;;5077414;28;20181;-68
2022/08/03 03:02:02;;;;;;;3.05;0.90;;;21.20;99.90;;;;;;5095248;28;20184;-68
2022/08/03 03:04:30;;;;;;;0.80;0.80;;;21.10;99.90;;;;;;5088008;28;20181;-68
2022/08/03 03:06:56;;;;;;;1.10;1.10;;;21.10;99.90;;;;;;5058776;28;20280;-68
2022/08/03 03:09:23;;;;;;;3.67;1.58;;;21.10;99.90;;;;;;5091792;28;20188;-69
2022/08/03 03:11:50;;;;;;;1.20;1.10;;;21.10;99.90;;;;;;5050465;28;20181;-68
2022/08/03 03:14:18;;;;;;;2.75;0.90;;;21.10;99.90;;;;;;5090308;28;20209;-68
2022/08/03 03:16:45;;;;;;;3.72;1.23;;;21.00;99.90;;;;;;5087080;28;20226;-68
2022/08/03 03:19:14;;;;;;;1.73;0.85;;;21.00;99.90;;;;;;5089283;28;20251;-68
2022/08/03 03:21:42;;;;;;;5.60;2.53;;;21.00;99.90;;;;;;5086842;28;20184;-68
2022/08/03 03:24:09;;;;;;;3.05;1.42;;;20.90;99.90;;;;;;5079542;28;20180;-68
2022/08/03 03:26:35;;;;;;;2.30;0.98;;;20.90;99.90;;;;;;5064925;28;20714;-67
2022/08/03 03:29:01;;;;;;;1.77;0.90;;;20.90;99.90;;;;;;5089648;28;20184;-68
2022/08/03 03:31:27;;;;;;;3.05;2.03;;;20.90;99.90;;;;;;5056219;28;20641;-67
2022/08/03 03:33:56;;;;;;;3.13;2.08;;;20.80;99.90;;;;;;5058471;28;20191;-71
2022/08/03 03:36:22;;;;;;;4.43;1.60;;;20.80;99.90;;;;;;5087751;28;20222;-68
2022/08/03 03:38:47;;;;;;;7.38;3.38;;;20.70;99.90;;;;;;5086664;28;20208;-68
2022/08/03 03:41:13;;;;;;;3.40;1.50;;;20.70;99.90;;;;;;5093285;28;20234;-68
2022/08/03 03:43:39;;;;;;;2.85;1.73;;;20.70;99.90;;;;;;5092043;28;20260;-67
2022/08/03 03:46:05;;;;;;;2.25;1.63;;;20.70;99.90;;;;;;5093070;28;20181;-68
2022/08/03 03:48:32;;;;;;;2.80;1.15;;;20.70;99.90;;;;;;5083869;28;20271;-67
2022/08/03 03:50:58;;;;;;;3.03;1.25;;;20.60;99.90;;;;;;5092513;28;20187;-68
2022/08/03 03:53:24;;;;;;;6.28;2.50;;;20.60;99.90;;;;;;5056777;28;20181;-68
2022/08/03 03:55:52;;;;;;;5.05;1.25;;;20.60;99.90;;;;;;5079662;28;20398;-68
2022/08/03 03:58:19;;;;;;;5.50;2.22;;;20.60;99.90;;;;;;5073010;28;20560;-68
2022/08/03 04:00:45;;;;;;;1.48;1.30;;;20.70;99.90;;;;;;5085397;28;20177;-68
2022/08/03 04:03:11;;;;;;;5.13;1.67;;;20.70;99.90;;;;;;5093171;28;20219;-68
2022/08/03 04:11:15;;;;;;;3.22;1.67;;;20.60;99.90;;;;;;5093864;28;20668;-68
2022/08/03 04:14:05;;;;;;;5.63;1.60;;;20.60;99.90;;;;;;5083458;28;20242;-68
2022/08/03 04:16:35;;;;;;;1.45;1.35;;;20.60;99.90;;;;;;5083357;28;20213;-68
2022/08/03 04:19:14;;;;;;;1.90;1.30;;;20.70;99.90;;;;;;5081875;28;20225;-68
2022/08/03 04:21:43;;;;;;;4.47;1.42;;;20.70;99.90;;;;;;5088950;28;20652;-68
2022/08/03 04:24:10;;;;;;;3.05;1.17;;;20.60;99.90;;;;;;5077802;28;20184;-68
2022/08/03 04:26:40;;;;;;;2.70;1.40;;;20.60;99.90;;;;;;5058262;28;20200;-68
2022/08/03 04:29:06;;;;;;;5.35;1.63;;;20.70;99.90;;;;;;5088318;28;21556;-68
2022/08/03 04:31:34;;;;;;;4.07;1.30;;;20.70;99.90;;;;;;5072423;28;20318;-68
2022/08/03 04:34:00;;;;;;;9.18;2.05;;;20.70;99.90;;;;;;5090233;28;20193;-68
2022/08/03 04:36:31;;;;;;;1.48;1.33;;;20.80;99.90;;;;;;5057362;28;20208;-68
2022/08/03 04:39:12;;;;;;;5.22;2.35;;;20.70;99.90;;;;;;5074933;28;20188;-68
2022/08/03 04:41:39;;;;;;;2.15;1.15;;;20.80;99.90;;;;;;5085173;28;20560;-68
2022/08/03 04:44:06;;;;;;;4.68;1.30;;;20.80;99.90;;;;;;5069350;28;20238;-71
2022/08/03 04:46:35;;;;;;;1.70;1.40;;;20.80;99.90;;;;;;5062364;28;20560;-68
2022/08/03 04:49:02;;;;;;;5.13;1.48;;;20.90;99.90;;;;;;5075529;28;20548;-68
2022/08/03 04:51:28;;;;;;;1.75;1.02;;;20.90;99.90;;;;;;5068838;28;20185;-68
2022/08/03 04:53:54;;;;;;;3.60;2.70;;;21.00;99.90;;;;;;5074025;28;20212;-67
2022/08/03 04:56:20;;;;;;;5.40;1.92;;;21.10;99.90;;;;;;5074973;28;20247;-68
2022/08/03 04:58:45;;;;;;;2.10;1.23;;;21.10;99.90;;;;;;5092626;28;20181;-68
2022/08/03 05:01:11;;;;;;;2.15;1.27;;;21.10;99.90;;;;;;5050713;28;20262;-68
2022/08/03 05:03:36;;;;;;;2.45;1.27;;;21.10;99.90;;;;;;5085703;28;20186;-68
2022/08/03 05:06:02;;;;;;;3.30;0.88;;;21.20;99.90;;;;;;5072323;28;20275;-68
2022/08/03 05:08:28;;;;;;;2.90;1.20;;;21.30;99.90;;;;;;5083248;28;20208;-68
2022/08/03 05:10:55;;;;;;;7.18;1.92;;;21.30;99.90;;;;;;5057163;28;20230;-68
2022/08/03 05:13:21;;;;;;;6.03;2.03;;;21.40;99.90;;;;;;5093091;28;20189;-68
2022/08/03 05:15:46;;;;;;;2.45;1.15;;;21.40;99.90;;;;;;5057321;28;20215;-68
2022/08/03 05:18:12;;;;;;;4.20;1.38;;;21.40;99.90;;;;;;5057582;28;20246;-68
2022/08/03 05:20:38;;;;;;;1.33;1.23;;;21.50;99.90;;;;;;5074692;28;20196;-68
2022/08/03 05:23:03;;;;;;;1.13;1.13;;;21.50;99.90;;;;;;5052102;28;20185;-68
2022/08/03 05:25:29;;;;;;;6.78;2.25;;;21.50;99.90;;;;;;5073747;28;20214;-68
2022/08/03 05:27:55;;;;;;;3.13;1.42;;;21.50;99.90;;;;;;5075224;28;20669;-68
2022/08/03 05:30:21;;;;;;;4.82;1.45;;;21.50;99.90;;;;;;5072513;28;20189;-68
2022/08/03 05:32:46;;;;;;;3.33;1.17;;;21.60;99.90;;;;;;5074130;28;20180;-67
2022/08/03 05:35:12;;;;;;;2.15;1.27;;;21.70;99.90;;;;;;5057471;28;20276;-68
2022/08/03 05:37:38;;;;;;;4.60;1.08;;;21.80;99.90;;;;;;5078257;28;20220;-68
2022/08/03 05:40:04;;;;;;;9.07;2.70;;;22.00;99.90;;;;;;5067576;28;20185;-68
2022/08/03 05:42:30;;;;;;;3.65;1.98;;;22.30;99.90;;;;;;5069723;28;20188;-69
2022/08/03 05:44:56;;;;;;;3.72;1.05;;;22.40;99.90;;;;;;5074664;28;20186;-68
2022/08/03 05:47:21;;;;;;;1.77;0.93;;;22.40;99.90;;;;;;5050935;28;20702;-68
2022/08/03 05:49:47;;;;;;;2.13;1.40;;;22.60;99.90;;;;;;5057543;28;20185;-68
2022/08/03 05:52:13;;;;;;;1.23;1.13;;;22.40;99.90;;;;;;5070606;28;20192;-68
2022/08/03 05:54:38;;;;;;;5.88;3.22;;;22.40;99.90;;;;;;5078618;28;20181;-68
2022/08/03 05:57:04;;;;;;;3.13;1.70;;;22.40;99.90;;;;;;5092482;28;20214;-68
2022/08/03 05:59:30;;;;;;;1.48;1.30;;;22.50;99.90;;;;;;5054315;28;20246;-68
2022/08/03 06:01:55;;;;;;;1.33;1.23;;;22.50;99.90;;;;;;5063502;28;20184;-68
2022/08/03 06:04:21;;;;;;;3.85;1.58;;;22.50;99.90;;;;;;5055285;28;20215;-69
2022/08/03 06:06:49;;;;;;;2.47;1.33;;;22.50;99.90;;;;;;5063379;28;20201;-68
2022/08/03 06:09:15;;;;;;;2.60;1.10;;;22.50;99.90;;;;;;5092392;28;20184;-68
2022/08/03 06:11:41;;;;;;;1.40;1.27;;;22.50;99.90;;;;;;5081277;28;20185;-68
2022/08/03 06:14:06;;;;;;;3.65;1.35;;;22.60;99.90;;;;;;5063930;28;20188;-68
2022/08/03 06:16:32;;;;;;;2.58;1.23;;;22.60;99.90;;;;;;5066680;28;20212;-68
2022/08/03 06:18:58;;;;;;;14.27;3.17;;;22.70;99.90;;;;;;5055493;28;20641;-68
2022/08/03 06:21:24;;;;;;;3.28;1.77;;;22.70;99.90;;;;;;5056291;28;20217;-68
2022/08/03 06:23:49;;;;;;;5.80;1.48;;;22.80;99.90;;;;;;5070443;28;20189;-68
2022/08/03 06:26:15;;;;;;;2.58;1.27;;;22.70;99.90;;;;;;5064488;28;20594;-68
2022/08/03 06:28:43;;;;;;;5.53;1.92;;;22.80;99.90;;;;;;5061304;28;20189;-68
2022/08/03 06:31:08;;;;;;;2.33;1.38;;;22.90;99.90;;;;;;5078280;28;20272;-68
2022/08/03 06:33:34;;;;;;;3.13;1.17;;;23.10;99.90;;;;;;5082720;28;20567;-68
2022/08/03 06:36:00;;;;;;;3.10;1.33;;;23.30;99.90;;;;;;5068389;28;20220;-68
2022/08/03 06:38:25;;;;;;;2.80;2.33;;;23.30;99.90;;;;;;5081585;28;20279;-67
2022/08/03 06:40:51;;;;;;;3.15;1.08;;;23.30;99.90;;;;;;5080446;28;20195;-68
2022/08/03 06:43:17;;;;;;;1.77;0.75;;;23.30;99.90;;;;;;5071887;28;20314;-66
2022/08/03 06:45:42;;;;;;;2.85;1.15;;;23.30;99.90;;;;;;5092061;28;20656;-67
2022/08/03 06:48:10;;;;;;;13.07;1.92;;;23.20;99.90;;;;;;5089321;28;20185;-66
2022/08/03 06:50:37;;;;;;;2.00;1.13;;;23.20;99.90;;;;;;5086800;28;20645;-66
2022/08/03 06:53:04;;;;;;;3.33;0.95;;;23.30;99.90;;;;;;5069423;28;20181;-67
2022/08/03 06:55:31;;;;;;;2.35;1.17;;;23.40;99.90;;;;;;5070084;28;20666;-63
2022/08/03 06:57:56;;;;;;;5.15;2.03;;;23.30;99.90;;;;;;5058468;28;20246;-66
2022/08/03 07:00:22;;;;;;;4.20;1.25;;;23.40;99.90;;;;;;5093558;28;20188;-65
2022/08/03 07:02:48;;;;;;;3.40;1.70;;;23.50;99.90;;;;;;5094416;28;20210;-65
2022/08/03 07:05:14;;;;;;;1.02;0.93;;;23.60;99.90;;;;;;5093884;28;20196;-67
2022/08/03 07:07:40;;;;;;;3.30;0.98;;;23.70;99.90;;;;;;5074488;28;20284;-65
2022/08/03 07:10:07;;;;;;;3.92;1.08;;;23.80;99.90;;;;;;5094484;28;20368;-66
2022/08/03 07:12:34;;;;;;;2.15;0.80;;;23.90;99.90;;;;;;5058294;28;20177;-64
2022/08/03 07:15:01;;;;;;;2.25;0.88;;;24.20;99.90;;;;;;5079533;28;20192;-64
2022/08/03 07:17:29;;;;;;;1.70;0.80;;;24.40;99.90;;;;;;5085595;28;20567;-66
2022/08/03 07:19:55;;;;;;;3.42;2.00;;;24.50;99.90;;;;;;5087475;28;20553;-65
2022/08/03 07:22:21;;;;;;;2.83;0.60;;;24.50;99.90;;;;;;5076523;28;20184;-65
2022/08/03 07:24:46;;;;;;;1.02;1.00;;;24.60;99.90;;;;;;5073278;28;20185;-65
2022/08/03 07:27:12;;;;;;;2.17;0.73;;;24.80;99.90;;;;;;5069192;28;20552;-67
2022/08/03 07:29:38;;;;;;;2.38;1.10;;;24.90;99.90;;;;;;5077039;28;20271;-66
2022/08/03 07:32:04;;;;;;;1.27;1.10;;;25.00;99.90;;;;;;5094802;28;20630;-66
2022/08/03 07:34:30;;;;;;;2.85;1.50;;;25.00;99.90;;;;;;5073311;28;20616;-66
2022/08/03 07:36:56;;;;;;;3.33;1.02;;;25.10;99.90;;;;;;5095305;28;20722;-65
2022/08/03 07:39:22;;;;;;;8.05;1.10;;;25.50;99.90;;;;;;5076392;28;20193;-68
2022/08/03 07:41:50;;;;;;;5.32;1.33;;;27.40;99.90;;;;;;5074080;28;20467;-68
2022/08/03 07:44:19;;;;;;;7.80;1.48;;;29.50;99.90;;;;;;5090277;28;20596;-68
2022/08/03 07:46:44;;;;;;;1.75;1.15;;;31.50;99.90;;;;;;5093715;28;20595;-68
2022/08/03 07:49:10;;;;;;;4.53;1.60;;;33.10;99.90;;;;;;5091427;28;20184;-69
2022/08/03 07:51:36;;;;;;;4.68;1.35;;;34.30;99.90;;;;;;5068285;28;20184;-68
2022/08/03 07:54:02;;;;;;;4.32;1.25;;;35.10;99.90;;;;;;5087136;28;20180;-69
2022/08/03 07:56:27;;;;;;;1.35;1.30;;;35.70;99.90;;;;;;5092875;28;20212;-69
2022/08/03 07:58:54;;;;;;;3.75;0.90;;;36.00;99.90;;;;;;5094325;28;20188;-68
2022/08/03 08:01:21;;;;;;;1.45;0.63;;;36.80;99.90;;;;;;5074044;28;20274;-68
2022/08/03 08:03:47;;;;;;;5.28;1.30;;;37.00;99.90;;;;;;5077557;28;20176;-66
2022/08/03 08:06:13;;;;;;;4.82;1.35;;;37.40;99.90;;;;;;5085187;28;20188;-67
2022/08/03 08:08:40;;;;;;;1.27;0.75;;;37.60;99.90;;;;;;5093831;28;20192;-68
2022/08/03 08:11:06;;;;;;;2.45;1.10;;;37.90;99.90;;;;;;5086678;28;20538;-68
2022/08/03 08:13:32;;;;;;;9.13;1.60;;;38.80;99.90;;;;;;5041307;28;20189;-68
2022/08/03 08:15:58;;;;;;;3.78;1.00;;;39.00;99.90;;;;;;5087258;28;20214;-68
2022/08/03 08:18:24;;;;;;;4.82;0.82;;;39.60;99.90;;;;;;5059407;28;20191;-68
2022/08/03 08:20:50;;;;;;;6.72;0.77;;;39.90;99.90;;;;;;5091635;28;20184;-69
2022/08/03 08:23:21;;;;;;;5.97;1.00;;;40.40;99.90;;;;;;5075441;28;20668;-66
2022/08/03 08:25:47;;;;;;;3.70;1.40;;;40.70;99.90;;;;;;5080478;28;20199;-67
2022/08/03 08:28:13;;;;;;;8.82;1.02;;;40.30;99.90;;;;;;5092238;28;20279;-67
2022/08/03 08:30:39;;;;;;;3.72;0.77;;;40.10;99.90;;;;;;5068585;28;20272;-66
2022/08/03 08:33:05;;;;;;;3.75;1.00;;;40.30;99.90;;;;;;5075616;28;20572;-66
2022/08/03 08:35:30;;;;;;;1.67;0.75;;;39.90;99.90;;;;;;5093695;28;20198;-66
2022/08/03 08:37:58;;;;;;;1.40;1.17;;;40.10;99.90;;;;;;5092950;28;20257;-68
2022/08/03 08:40:24;;;;;;;8.52;1.50;;;39.60;99.90;;;;;;5093324;28;20267;-67
2022/08/03 08:42:52;;;;;;;1.20;0.45;;;38.90;99.90;;;;;;5092621;28;20737;-67
2022/08/03 08:45:18;;;;;;;6.55;1.27;;;39.00;99.90;;;;;;5087930;28;20282;-67
2022/08/03 08:47:46;;;;;;;3.53;1.00;;;39.50;99.90;;;;;;5092735;28;20721;-67
2022/08/03 08:50:13;;;;;;;4.40;0.98;;;40.30;99.90;;;;;;5090175;28;20269;-67
2022/08/03 08:52:44;;;;;;;6.80;0.90;;;40.30;99.90;;;;;;5088435;28;20648;-68
2022/08/03 08:55:13;;;;;;;6.07;1.38;;;40.60;99.90;;;;;;5092602;28;20183;-68
2022/08/03 08:58:04;;;;;;;7.68;1.10;;;40.80;99.90;;;;;;5092598;28;20188;-66
2022/08/03 09:00:30;;;;;;;3.72;2.60;;;41.10;99.90;;;;;;5063967;28;20240;-69
2022/08/03 09:02:56;;;;;;;2.70;0.88;;;41.00;99.90;;;;;;5088720;28;20313;-70
2022/08/03 09:05:22;;;;;;;1.67;1.55;;;41.20;99.90;;;;;;5089620;28;20207;-71
2022/08/03 09:07:48;;;;;;;4.75;1.35;;;41.70;99.90;;;;;;5093817;28;20197;-70
2022/08/03 09:10:20;;;;;;;7.53;1.00;;;41.50;98.80;;;;;;5088817;28;20668;-71
2022/08/03 09:12:48;;;;;;;5.82;1.48;;;41.50;98.90;;;;;;5089311;28;20229;-70
2022/08/03 09:15:23;;;;;;;3.53;0.90;;;41.70;98.80;;;;;;5082319;28;20634;-71
2022/08/03 09:17:51;;;;;;;4.85;3.08;;;41.40;98.20;;;;;;5092790;28;20206;-70
2022/08/03 09:20:18;;;;;;;7.00;1.23;;;41.30;98.40;;;;;;5091032;28;20286;-71
2022/08/03 09:22:56;;;;;;;1.73;0.63;;;40.60;98.50;;;;;;5089687;28;20656;-70
2022/08/03 09:25:35;;;;;;;1.17;0.75;;;40.00;98.80;;;;;;5074528;28;20184;-70
2022/08/03 09:28:12;;;;;;;2.88;0.80;;;39.20;99.20;;;;;;5088938;28;20251;-70
2022/08/03 09:30:42;;;;;;;10.73;2.35;;;37.60;99.90;;;;;;5087243;28;20175;-69
2022/08/03 09:33:10;;;;;;;7.43;1.10;;;36.20;99.90;;;;;;5091148;28;20243;-67
2022/08/03 09:35:47;;;;;;;5.75;1.50;;;35.20;99.90;;;;;;5058777;28;20226;-69
2022/08/03 09:38:26;;;;;;;1.23;0.80;;;34.50;99.90;;;;;;5058263;28;20599;-70
2022/08/03 09:40:52;;;;;;;1.73;0.80;;;33.80;99.90;;;;;;5077380;28;20180;-69
2022/08/03 09:43:18;;;;;;;6.22;0.90;;;33.20;99.90;;;;;;5091326;28;20226;-68
2022/08/03 09:45:44;;;;;;;1.17;0.50;;;32.90;99.90;;;;;;5065403;28;20275;-67
2022/08/03 09:48:20;;;;;;;10.00;4.18;;;32.50;99.90;;;;;;5091666;28;20267;-67
2022/08/03 09:50:54;;;;;;;4.88;1.27;;;32.40;99.90;;;;;;5061519;28;20188;-66
2022/08/03 09:53:21;;;;;;;1.73;1.63;;;32.20;99.90;;;;;;5057489;28;20187;-67
2022/08/03 09:55:58;;;;;;;1.75;0.80;;;31.90;99.90;;;;;;5064838;28;20204;-72
2022/08/03 09:58:25;;;;;;;4.05;0.80;;;31.90;99.90;;;;;;5086425;28;20191;-70
2022/08/03 10:00:53;;;;;;;1.30;1.02;;;31.90;99.90;;;;;;5066675;28;20195;-70
2022/08/03 10:03:19;;;;;;;0.82;0.70;;;31.90;99.90;;;;;;5090036;28;20190;-64
2022/08/03 10:05:45;;;;;;;3.88;0.70;;;31.70;99.90;;;;;;5073820;28;20612;-67
2022/08/03 10:08:15;;;;;;;2.47;0.60;;;31.60;99.90;;;;;;5068127;28;20217;-68
2022/08/03 10:10:43;;;;;;;5.38;1.17;;;31.70;99.90;;;;;;5090478;28;20693;-66
2022/08/03 10:13:13;;;;;;;0.63;0.50;;;31.70;99.90;;;;;;5092343;28;20196;-69
2022/08/03 10:15:40;;;;;;;0.60;0.60;;;31.60;99.90;;;;;;5062849;28;20222;-66
2022/08/03 10:18:06;;;;;;;0.85;0.77;;;31.80;99.90;;;;;;5082710;28;20180;-67
2022/08/03 10:21:02;;;;;;;3.03;1.15;;;31.80;99.90;;;;;;5086300;28;20290;-66
2022/08/03 10:23:32;;;;;;;0.85;0.75;;;31.70;99.90;;;;;;5062670;28;20206;-68
2022/08/03 10:26:02;;;;;;;3.33;1.00;;;31.50;99.90;;;;;;5068532;28;20183;-66
2022/08/03 10:28:39;;;;;;;2.03;0.80;;;31.40;99.90;;;;;;5086451;28;20275;-69
2022/08/03 10:31:06;;;;;;;2.53;1.52;;;31.40;99.90;;;;;;5083242;28;20702;-66
2022/08/03 10:33:40;;;;;;;1.85;1.17;;;31.50;99.90;;;;;;5090440;28;20202;-67
2022/08/03 10:36:06;;;;;;;4.93;1.20;;;31.70;99.90;;;;;;5093587;28;20254;-67
2022/08/03 10:38:39;;;;;;;4.90;0.90;;;31.60;99.90;;;;;;5087012;28;20188;-68
2022/08/03 10:41:07;;;;;;;1.63;1.52;;;31.60;99.90;;;;;;5089513;28;20207;-68
2022/08/03 10:43:45;;;;;;;1.65;0.98;;;31.70;99.90;;;;;;5091562;28;20536;-67
2022/08/03 10:46:10;;;;;;;2.78;0.95;;;31.60;99.90;;;;;;5089162;28;20263;-67
2022/08/03 10:48:37;;;;;;;3.75;0.73;;;31.60;99.90;;;;;;5092507;28;20279;-67
2022/08/03 10:51:03;;;;;;;3.25;1.55;;;31.60;99.90;;;;;;5089456;28;20229;-65
2022/08/03 10:53:37;;;;;;;2.05;0.70;;;31.60;99.90;;;;;;5057124;28;20181;-70
2022/08/03 10:58:52;;;;;;;1.23;0.70;;;31.60;99.90;;;;;;5089686;28;20199;-67
2022/08/03 11:01:39;;;;;;;0.93;0.60;;;31.70;99.90;;;;;;5070530;28;20637;-67
2022/08/03 11:04:05;;;;;;;1.08;0.60;;;31.80;99.90;;;;;;5077909;28;20195;-68
2022/08/03 11:06:31;;;;;;;2.47;1.10;;;31.80;99.90;;;;;;5072286;28;20200;-68
2022/08/03 11:09:09;;;;;;;1.10;0.63;;;31.80;99.90;;;;;;5076697;28;20212;-67
2022/08/03 11:11:37;;;;;;;3.05;0.80;;;31.90;99.90;;;;;;5083298;28;20263;-68
2022/08/03 11:14:11;;;;;;;0.73;0.73;;;32.00;99.90;;;;;;5075347;28;20180;-67
2022/08/03 11:16:40;;;;;;;5.88;1.00;;;32.00;99.90;;;;;;5091232;28;20272;-68
2022/08/03 11:19:14;;;;;;;0.70;0.70;;;32.00;99.90;;;;;;5091603;28;21522;-68
2022/08/03 11:21:48;;;;;;;0.93;0.85;;;32.00;99.90;;;;;;5088869;28;20183;-68
2022/08/03 11:24:36;;;;;;;1.75;0.80;;;32.00;99.90;;;;;;5070638;28;20208;-69
2022/08/03 11:27:17;;;;;;;1.77;1.45;;;32.10;99.90;;;;;;5077234;28;20187;-68
2022/08/03 11:30:06;;;;;;;4.68;1.33;;;31.90;99.90;;;;;;5093796;28;20186;-70
2022/08/03 11:32:42;;;;;;;1.08;0.70;;;31.90;99.90;;;;;;5076005;28;20191;-70
2022/08/03 11:35:14;;;;;;;7.28;1.38;;;32.00;99.90;;;;;;5094217;28;20667;-70
2022/08/03 11:38:04;;;;;;;1.58;0.90;;;32.10;99.90;;;;;;5093914;28;20211;-70
2022/08/03 11:40:50;;;;;;;0.52;0.52;;;32.10;99.90;;;;;;5073359;28;20208;-69
2022/08/03 11:43:22;;;;;;;3.45;0.95;;;32.00;99.90;;;;;;5083282;28;20233;-70
2022/08/03 11:45:59;;;;;;;0.57;0.57;;;31.90;99.90;;;;;;5084308;28;20321;-70
2022/08/03 11:48:34;;;;;;;4.40;1.00;;;32.00;99.90;;;;;;5092112;28;20188;-70
2022/08/03 11:51:01;;;;;;;0.40;0.40;;;32.10;99.90;;;;;;5086513;28;20184;-70
2022/08/03 11:53:26;;;;;;;0.60;0.60;;;32.10;99.90;;;;;;5069585;28;20185;-69
2022/08/03 11:55:52;;;;;;;5.95;1.00;;;32.00;99.90;;;;;;5083297;28;20710;-69
2022/08/03 11:58:20;;;;;;;0.90;0.38;;;32.00;99.90;;;;;;5089751;28;20249;-69
2022/08/03 12:00:45;;;;;;;1.23;0.70;;;32.10;99.90;;;;;;5094256;28;20570;-69
2022/08/03 12:03:13;;;;;;;2.80;1.00;;;32.00;99.90;;;;;;5074674;28;20214;-69
2022/08/03 12:05:52;;;;;;;1.70;0.80;;;32.10;99.90;;;;;;5094322;28;20664;-70
2022/08/03 12:08:44;;;;;;;0.68;0.60;;;32.10;99.90;;;;;;5093167;28;20640;-69
2022/08/03 12:11:12;;;;;;;2.05;0.47;;;32.20;99.90;;;;;;5086763;28;20602;-69
2022/08/03 12:13:48;;;;;;;2.85;1.58;;;32.00;99.90;;;;;;5094316;28;20180;-69
2022/08/03 12:16:24;;;;;;;2.08;0.57;;;32.00;99.90;;;;;;5090732;28;20260;-69
2022/08/03 12:19:01;;;;;;;0.57;0.52;;;32.10;99.90;;;;;;5073864;28;20188;-70
2022/08/03 12:21:28;;;;;;;2.50;0.60;;;32.20;99.90;;;;;;5070685;28;20184;-70
2022/08/03 12:24:02;;;;;;;1.08;0.63;;;32.10;99.90;;;;;;5088079;28;20222;-70
2022/08/03 12:26:29;;;;;;;0.40;0.40;;;32.10;99.90;;;;;;5093966;28;20184;-70
2022/08/03 12:28:55;;;;;;;1.20;0.60;;;32.00;99.90;;;;;;5091725;28;20184;-69
2022/08/03 12:31:20;;;;;;;1.65;1.55;;;31.90;99.90;;;;;;5091376;28;20690;-69
2022/08/03 12:34:05;;;;;;;0.52;0.52;;;32.10;99.90;;;;;;5085411;28;20176;-69
2022/08/03 12:36:33;;;;;;;5.15;0.88;;;32.20;99.90;;;;;;5093930;28;20211;-69
2022/08/03 12:39:03;;;;;;;0.40;0.40;;;32.20;99.90;;;;;;5090061;28;20273;-69
2022/08/03 12:41:38;;;;;;;1.05;0.70;;;32.20;99.90;;;;;;5088457;28;20318;-70
2022/08/03 12:44:05;;;;;;;0.65;0.60;;;32.20;99.90;;;;;;5085165;28;20180;-69
2022/08/03 12:46:32;;;;;;;1.83;0.95;;;32.40;99.90;;;;;;5072937;28;20271;-69
2022/08/03 12:48:58;;;;;;;0.93;0.60;;;32.50;99.90;;;;;;5093565;28;20188;-69
2022/08/03 12:51:26;;;;;;;3.30;0.65;;;32.60;99.90;;;;;;5090506;28;20184;-70
2022/08/03 12:53:57;;;;;;;0.60;0.60;;;32.70;99.90;;;;;;5059825;28;20184;-69
2022/08/03 12:56:22;;;;;;;0.73;0.60;;;32.70;99.90;;;;;;5086311;28;20213;-70
2022/08/03 12:58:49;;;;;;;1.60;0.60;;;32.60;99.90;;;;;;5070994;28;20194;-69
2022/08/03 13:01:16;;;;;;;1.55;0.85;;;32.80;99.90;;;;;;5091330;28;20184;-70
2022/08/03 13:03:43;;;;;;;1.42;0.80;;;33.00;99.90;;;;;;5075339;28;20184;-69